OZZ weather

Ouarzazate Airport
Ouarzazate, Ouarzazate Province, Morocco

Public forecast

Using degrees Celsius for public forecast. Weather courtesy of forecast.io.

METAR (pilot weather report)

Retrieved 2019/05/27 07:00 UTC (37 minutes ago):

GMMZ 270700Z VRB02KT CAVOK 22/01 Q1016 NOSIG

TAF (pilot weather forecast)

Retrieved 2019/05/27 06:15 UTC (1 hour ago):

TAF GMMZ 270500Z 2706/2812 07004KT 8000 NSC